Turner Center, Maine
Current Conditions -  °F | °C
As of 3:35 PM on Wednesday 26 Nov 2014 (Local Time) from KLEW Reporting Station
Overcast Overcast  
Wind Chill: 25°   Ceiling: 600
Heat Index: 32°   Visibility: 0.5mi
Dew Point: 30°   Wind: 8mph
Humidity: 93%   Direction: 30°NNE
Pressure: 30.13"   Gusts: NA
Location:  44.27°N, 70.22°W
Report Text: KLEW 262035Z AUTO 03007KT 1/2SM OVC006 00/M01 A3013 RMK AO1
Loading
Personal Weather Stations






























Interactive Weather Map New forecast layout! Learn more

10-Day Weather Forecast

Advertisements
Track Severe Weather on mobile